sensor_id;sensor_type;location;lat;lon;timestamp;temperature;humidity
70830;SHT30;58451;51.550;7.208;2022-09-16T00:01:21;13.60;74.16
70830;SHT30;58451;51.550;7.208;2022-09-16T00:03:48;13.60;74.27
70830;SHT30;58451;51.550;7.208;2022-09-16T00:06:23;13.58;74.42
70830;SHT30;58451;51.550;7.208;2022-09-16T00:08:54;13.57;74.47
70830;SHT30;58451;51.550;7.208;2022-09-16T00:11:23;13.56;74.35
70830;SHT30;58451;51.550;7.208;2022-09-16T00:13:50;13.55;74.57
70830;SHT30;58451;51.550;7.208;2022-09-16T00:16:22;13.54;74.63
70830;SHT30;58451;51.550;7.208;2022-09-16T00:18:56;13.53;74.76
70830;SHT30;58451;51.550;7.208;2022-09-16T00:21:26;13.52;74.82
70830;SHT30;58451;51.550;7.208;2022-09-16T00:23:55;13.52;74.91
70830;SHT30;58451;51.550;7.208;2022-09-16T00:26:22;13.49;74.92
70830;SHT30;58451;51.550;7.208;2022-09-16T00:28:51;13.48;74.79
70830;SHT30;58451;51.550;7.208;2022-09-16T00:31:18;13.47;75.04
70830;SHT30;58451;51.550;7.208;2022-09-16T00:33:45;13.46;75.09
70830;SHT30;58451;51.550;7.208;2022-09-16T00:36:18;13.45;75.18
70830;SHT30;58451;51.550;7.208;2022-09-16T00:38:48;13.44;75.23
70830;SHT30;58451;51.550;7.208;2022-09-16T00:41:19;13.44;75.22
70830;SHT30;58451;51.550;7.208;2022-09-16T00:43:53;13.44;75.25
70830;SHT30;58451;51.550;7.208;2022-09-16T00:46:24;13.43;75.28
70830;SHT30;58451;51.550;7.208;2022-09-16T00:49:14;13.42;75.36
70830;SHT30;58451;51.550;7.208;2022-09-16T00:51:48;13.42;75.34
70830;SHT30;58451;51.550;7.208;2022-09-16T00:54:22;13.41;75.49
70830;SHT30;58451;51.550;7.208;2022-09-16T00:56:51;13.40;75.44
70830;SHT30;58451;51.550;7.208;2022-09-16T00:59:24;13.41;75.41
70830;SHT30;58451;51.550;7.208;2022-09-16T01:01:57;13.39;75.44
70830;SHT30;58451;51.550;7.208;2022-09-16T01:04:33;13.39;75.53
70830;SHT30;58451;51.550;7.208;2022-09-16T01:07:21;13.39;75.71
70830;SHT30;58451;51.550;7.208;2022-09-16T01:09:57;13.38;75.74
70830;SHT30;58451;51.550;7.208;2022-09-16T01:12:25;13.39;75.70
70830;SHT30;58451;51.550;7.208;2022-09-16T01:14:57;13.39;75.67
70830;SHT30;58451;51.550;7.208;2022-09-16T01:17:38;13.39;75.72
70830;SHT30;58451;51.550;7.208;2022-09-16T01:20:57;13.40;75.75
70830;SHT30;58451;51.550;7.208;2022-09-16T01:33:09;13.37;75.90
70830;SHT30;58451;51.550;7.208;2022-09-16T01:35:40;13.38;75.94
70830;SHT30;58451;51.550;7.208;2022-09-16T01:41:20;13.39;75.93
70830;SHT30;58451;51.550;7.208;2022-09-16T01:44:02;13.39;75.92
70830;SHT30;58451;51.550;7.208;2022-09-16T01:53:13;13.40;75.95
70830;SHT30;58451;51.550;7.208;2022-09-16T01:55:56;13.40;75.92
70830;SHT30;58451;51.550;7.208;2022-09-16T01:58:46;13.41;75.99
70830;SHT30;58451;51.550;7.208;2022-09-16T02:01:27;13.41;76.06
70830;SHT30;58451;51.550;7.208;2022-09-16T02:04:09;13.41;76.02
70830;SHT30;58451;51.550;7.208;2022-09-16T02:06:43;13.42;76.12
70830;SHT30;58451;51.550;7.208;2022-09-16T02:09:13;13.41;76.12
70830;SHT30;58451;51.550;7.208;2022-09-16T02:11:49;13.41;76.11
70830;SHT30;58451;51.550;7.208;2022-09-16T02:14:26;13.41;76.19
70830;SHT30;58451;51.550;7.208;2022-09-16T02:17:02;13.43;76.10
70830;SHT30;58451;51.550;7.208;2022-09-16T02:19:36;13.43;76.25
70830;SHT30;58451;51.550;7.208;2022-09-16T02:22:11;13.43;76.42
70830;SHT30;58451;51.550;7.208;2022-09-16T02:24:44;13.43;76.42
70830;SHT30;58451;51.550;7.208;2022-09-16T02:27:14;13.43;76.59
70830;SHT30;58451;51.550;7.208;2022-09-16T02:29:54;13.43;76.50
70830;SHT30;58451;51.550;7.208;2022-09-16T02:32:28;13.43;76.70
70830;SHT30;58451;51.550;7.208;2022-09-16T02:35:00;13.43;76.71
70830;SHT30;58451;51.550;7.208;2022-09-16T02:37:51;13.42;76.55
70830;SHT30;58451;51.550;7.208;2022-09-16T02:40:31;13.42;76.76
70830;SHT30;58451;51.550;7.208;2022-09-16T02:43:14;13.40;76.91
70830;SHT30;58451;51.550;7.208;2022-09-16T02:51:39;13.35;76.94
70830;SHT30;58451;51.550;7.208;2022-09-16T02:57:02;13.32;77.05
70830;SHT30;58451;51.550;7.208;2022-09-16T02:59:30;13.31;76.93
70830;SHT30;58451;51.550;7.208;2022-09-16T03:01:58;13.31;77.00
70830;SHT30;58451;51.550;7.208;2022-09-16T03:04:27;13.28;77.05
70830;SHT30;58451;51.550;7.208;2022-09-16T03:06:55;13.27;77.19
70830;SHT30;58451;51.550;7.208;2022-09-16T03:09:22;13.25;77.08
70830;SHT30;58451;51.550;7.208;2022-09-16T03:14:53;13.22;77.08
70830;SHT30;58451;51.550;7.208;2022-09-16T03:20:36;13.18;77.01
70830;SHT30;58451;51.550;7.208;2022-09-16T03:23:28;13.17;76.92
70830;SHT30;58451;51.550;7.208;2022-09-16T03:26:33;13.15;76.84
70830;SHT30;58451;51.550;7.208;2022-09-16T03:29:31;13.14;76.72
70830;SHT30;58451;51.550;7.208;2022-09-16T03:32:14;13.14;76.69
70830;SHT30;58451;51.550;7.208;2022-09-16T03:34:58;13.14;76.79
70830;SHT30;58451;51.550;7.208;2022-09-16T03:37:35;13.12;76.75
70830;SHT30;58451;51.550;7.208;2022-09-16T03:40:09;13.13;76.72
70830;SHT30;58451;51.550;7.208;2022-09-16T03:42:41;13.12;76.80
70830;SHT30;58451;51.550;7.208;2022-09-16T03:45:12;13.11;76.77
70830;SHT30;58451;51.550;7.208;2022-09-16T03:47:43;13.09;76.82
70830;SHT30;58451;51.550;7.208;2022-09-16T03:50:11;13.08;77.03
70830;SHT30;58451;51.550;7.208;2022-09-16T03:52:39;13.07;77.19
70830;SHT30;58451;51.550;7.208;2022-09-16T03:55:07;13.05;77.28
70830;SHT30;58451;51.550;7.208;2022-09-16T03:57:36;13.05;77.33
70830;SHT30;58451;51.550;7.208;2022-09-16T04:00:04;13.05;77.47
70830;SHT30;58451;51.550;7.208;2022-09-16T04:02:39;13.04;77.41
70830;SHT30;58451;51.550;7.208;2022-09-16T04:05:06;13.05;77.50
70830;SHT30;58451;51.550;7.208;2022-09-16T04:07:34;13.05;77.38
70830;SHT30;58451;51.550;7.208;2022-09-16T04:10:01;13.06;77.48
70830;SHT30;58451;51.550;7.208;2022-09-16T04:12:31;13.07;77.42
70830;SHT30;58451;51.550;7.208;2022-09-16T04:14:58;13.06;77.58
70830;SHT30;58451;51.550;7.208;2022-09-16T04:17:26;13.06;77.61
70830;SHT30;58451;51.550;7.208;2022-09-16T04:19:57;13.07;77.61
70830;SHT30;58451;51.550;7.208;2022-09-16T04:22:26;13.07;77.51
70830;SHT30;58451;51.550;7.208;2022-09-16T04:24:56;13.07;77.66
70830;SHT30;58451;51.550;7.208;2022-09-16T04:27:23;13.05;77.65
70830;SHT30;58451;51.550;7.208;2022-09-16T04:29:50;13.05;77.62
70830;SHT30;58451;51.550;7.208;2022-09-16T04:32:17;13.03;77.66
70830;SHT30;58451;51.550;7.208;2022-09-16T04:34:44;13.01;77.81
70830;SHT30;58451;51.550;7.208;2022-09-16T04:37:11;13.00;77.73
70830;SHT30;58451;51.550;7.208;2022-09-16T04:39:37;13.01;77.71
70830;SHT30;58451;51.550;7.208;2022-09-16T04:42:04;13.01;77.77
70830;SHT30;58451;51.550;7.208;2022-09-16T04:44:32;13.01;77.74
70830;SHT30;58451;51.550;7.208;2022-09-16T04:46:59;13.01;77.77
70830;SHT30;58451;51.550;7.208;2022-09-16T04:49:26;13.02;77.69
70830;SHT30;58451;51.550;7.208;2022-09-16T04:51:53;13.01;77.73
70830;SHT30;58451;51.550;7.208;2022-09-16T04:54:19;12.98;77.68
70830;SHT30;58451;51.550;7.208;2022-09-16T04:56:46;12.95;77.65
70830;SHT30;58451;51.550;7.208;2022-09-16T04:59:13;12.93;77.63
70830;SHT30;58451;51.550;7.208;2022-09-16T05:01:40;12.92;77.74
70830;SHT30;58451;51.550;7.208;2022-09-16T05:04:09;12.91;77.74
70830;SHT30;58451;51.550;7.208;2022-09-16T05:06:38;12.91;77.71
70830;SHT30;58451;51.550;7.208;2022-09-16T05:09:07;12.91;77.76
70830;SHT30;58451;51.550;7.208;2022-09-16T05:11:37;12.91;77.79
70830;SHT30;58451;51.550;7.208;2022-09-16T05:14:14;12.92;77.74
70830;SHT30;58451;51.550;7.208;2022-09-16T05:16:43;12.93;77.65
70830;SHT30;58451;51.550;7.208;2022-09-16T05:21:41;12.97;77.47
70830;SHT30;58451;51.550;7.208;2022-09-16T05:24:09;12.98;77.35
70830;SHT30;58451;51.550;7.208;2022-09-16T05:26:39;13.01;77.21
70830;SHT30;58451;51.550;7.208;2022-09-16T05:29:09;13.04;76.80
70830;SHT30;58451;51.550;7.208;2022-09-16T05:31:42;13.07;76.40
70830;SHT30;58451;51.550;7.208;2022-09-16T05:34:16;13.08;76.05
70830;SHT30;58451;51.550;7.208;2022-09-16T05:36:46;13.10;75.91
70830;SHT30;58451;51.550;7.208;2022-09-16T05:39:16;13.10;75.71
70830;SHT30;58451;51.550;7.208;2022-09-16T05:41:56;13.11;75.63
70830;SHT30;58451;51.550;7.208;2022-09-16T05:44:25;13.12;75.63
70830;SHT30;58451;51.550;7.208;2022-09-16T05:46:56;13.13;75.51
70830;SHT30;58451;51.550;7.208;2022-09-16T05:49:23;13.12;75.59
70830;SHT30;58451;51.550;7.208;2022-09-16T05:51:51;13.14;75.68
70830;SHT30;58451;51.550;7.208;2022-09-16T05:54:19;13.19;75.70
70830;SHT30;58451;51.550;7.208;2022-09-16T05:56:50;13.29;75.53
70830;SHT30;58451;51.550;7.208;2022-09-16T05:59:17;13.40;75.46
70830;SHT30;58451;51.550;7.208;2022-09-16T06:01:44;13.45;75.09
70830;SHT30;58451;51.550;7.208;2022-09-16T06:04:12;13.51;74.92
70830;SHT30;58451;51.550;7.208;2022-09-16T06:06:44;13.56;74.59
70830;SHT30;58451;51.550;7.208;2022-09-16T06:09:14;13.59;74.46
70830;SHT30;58451;51.550;7.208;2022-09-16T06:11:44;13.64;74.36
70830;SHT30;58451;51.550;7.208;2022-09-16T06:14:14;13.70;74.31
70830;SHT30;58451;51.550;7.208;2022-09-16T06:16:43;13.78;73.92
70830;SHT30;58451;51.550;7.208;2022-09-16T06:19:14;13.84;73.85
70830;SHT30;58451;51.550;7.208;2022-09-16T06:21:43;13.93;73.74
70830;SHT30;58451;51.550;7.208;2022-09-16T06:24:12;14.02;73.48
70830;SHT30;58451;51.550;7.208;2022-09-16T06:26:47;14.02;73.08
70830;SHT30;58451;51.550;7.208;2022-09-16T06:29:15;14.00;73.28
70830;SHT30;58451;51.550;7.208;2022-09-16T06:31:43;14.05;73.23
70830;SHT30;58451;51.550;7.208;2022-09-16T06:34:14;14.09;72.91
70830;SHT30;58451;51.550;7.208;2022-09-16T06:36:44;14.14;72.97
70830;SHT30;58451;51.550;7.208;2022-09-16T06:39:13;14.25;72.69
70830;SHT30;58451;51.550;7.208;2022-09-16T06:41:41;14.32;72.24
70830;SHT30;58451;51.550;7.208;2022-09-16T06:44:09;14.36;72.11
70830;SHT30;58451;51.550;7.208;2022-09-16T06:46:35;14.42;72.01
70830;SHT30;58451;51.550;7.208;2022-09-16T06:49:02;14.40;72.20
70830;SHT30;58451;51.550;7.208;2022-09-16T06:51:32;14.33;72.47
70830;SHT30;58451;51.550;7.208;2022-09-16T06:54:04;14.31;72.26
70830;SHT30;58451;51.550;7.208;2022-09-16T06:56:33;14.28;72.14
70830;SHT30;58451;51.550;7.208;2022-09-16T06:59:06;14.33;72.02
70830;SHT30;58451;51.550;7.208;2022-09-16T07:01:35;14.42;71.89
70830;SHT30;58451;51.550;7.208;2022-09-16T07:04:04;14.56;71.46
70830;SHT30;58451;51.550;7.208;2022-09-16T07:06:36;14.64;71.05
70830;SHT30;58451;51.550;7.208;2022-09-16T07:09:23;14.66;70.88
70830;SHT30;58451;51.550;7.208;2022-09-16T07:11:50;14.71;71.03
70830;SHT30;58451;51.550;7.208;2022-09-16T07:14:17;14.74;70.95
70830;SHT30;58451;51.550;7.208;2022-09-16T07:16:43;14.76;71.11
70830;SHT30;58451;51.550;7.208;2022-09-16T07:19:10;14.72;71.23
70830;SHT30;58451;51.550;7.208;2022-09-16T07:21:39;14.65;71.28
70830;SHT30;58451;51.550;7.208;2022-09-16T07:24:08;14.56;71.24
70830;SHT30;58451;51.550;7.208;2022-09-16T07:26:38;14.49;71.02
70830;SHT30;58451;51.550;7.208;2022-09-16T07:29:09;14.40;71.07
70830;SHT30;58451;51.550;7.208;2022-09-16T07:31:42;14.38;71.31
70830;SHT30;58451;51.550;7.208;2022-09-16T07:34:10;14.41;71.38
70830;SHT30;58451;51.550;7.208;2022-09-16T07:36:39;14.55;71.27
70830;SHT30;58451;51.550;7.208;2022-09-16T07:39:10;14.60;70.73
70830;SHT30;58451;51.550;7.208;2022-09-16T07:41:40;14.70;70.51
70830;SHT30;58451;51.550;7.208;2022-09-16T07:44:14;14.89;70.37
70830;SHT30;58451;51.550;7.208;2022-09-16T07:46:44;15.03;69.58
70830;SHT30;58451;51.550;7.208;2022-09-16T07:49:12;15.08;69.39
70830;SHT30;58451;51.550;7.208;2022-09-16T07:51:40;15.22;69.22
70830;SHT30;58451;51.550;7.208;2022-09-16T07:54:10;15.37;68.59
70830;SHT30;58451;51.550;7.208;2022-09-16T07:56:40;15.37;68.78
70830;SHT30;58451;51.550;7.208;2022-09-16T07:59:14;15.39;68.85
70830;SHT30;58451;51.550;7.208;2022-09-16T08:01:45;15.61;68.67
70830;SHT30;58451;51.550;7.208;2022-09-16T08:04:16;15.78;68.01
70830;SHT30;58451;51.550;7.208;2022-09-16T08:06:44;15.88;67.54
70830;SHT30;58451;51.550;7.208;2022-09-16T08:09:12;15.96;65.84
70830;SHT30;58451;51.550;7.208;2022-09-16T08:12:01;16.03;65.96
70830;SHT30;58451;51.550;7.208;2022-09-16T08:14:31;16.32;66.25
70830;SHT30;58451;51.550;7.208;2022-09-16T08:16:58;16.57;65.12
70830;SHT30;58451;51.550;7.208;2022-09-16T08:19:26;16.58;64.26
70830;SHT30;58451;51.550;7.208;2022-09-16T08:21:53;16.54;64.80
70830;SHT30;58451;51.550;7.208;2022-09-16T08:24:19;16.48;64.30
70830;SHT30;58451;51.550;7.208;2022-09-16T08:26:46;16.39;64.72
70830;SHT30;58451;51.550;7.208;2022-09-16T08:29:13;16.44;63.97
70830;SHT30;58451;51.550;7.208;2022-09-16T08:31:41;16.63;64.49
70830;SHT30;58451;51.550;7.208;2022-09-16T08:34:08;16.91;62.87
70830;SHT30;58451;51.550;7.208;2022-09-16T08:36:34;16.99;62.28
70830;SHT30;58451;51.550;7.208;2022-09-16T08:39:01;16.92;62.60
70830;SHT30;58451;51.550;7.208;2022-09-16T08:41:39;16.89;62.28
70830;SHT30;58451;51.550;7.208;2022-09-16T08:50:29;16.22;62.96
70830;SHT30;58451;51.550;7.208;2022-09-16T08:53:04;16.14;63.04
70830;SHT30;58451;51.550;7.208;2022-09-16T08:55:48;16.23;62.84
70830;SHT30;58451;51.550;7.208;2022-09-16T08:58:34;16.43;62.59
70830;SHT30;58451;51.550;7.208;2022-09-16T09:01:15;16.59;62.54
70830;SHT30;58451;51.550;7.208;2022-09-16T09:03:56;16.81;61.62
70830;SHT30;58451;51.550;7.208;2022-09-16T09:12:39;16.60;60.89
70830;SHT30;58451;51.550;7.208;2022-09-16T09:26:55;16.41;59.90
70830;SHT30;58451;51.550;7.208;2022-09-16T09:29:36;16.36;59.83
70830;SHT30;58451;51.550;7.208;2022-09-16T09:32:33;16.25;59.67
70830;SHT30;58451;51.550;7.208;2022-09-16T09:41:42;16.94;58.36
70830;SHT30;58451;51.550;7.208;2022-09-16T09:50:21;17.78;55.53
70830;SHT30;58451;51.550;7.208;2022-09-16T09:55:44;17.73;53.68
70830;SHT30;58451;51.550;7.208;2022-09-16T10:00:51;18.19;51.23
70830;SHT30;58451;51.550;7.208;2022-09-16T10:03:26;18.33;50.80
70830;SHT30;58451;51.550;7.208;2022-09-16T10:05:56;18.36;50.00
70830;SHT30;58451;51.550;7.208;2022-09-16T10:13:48;18.76;48.32
70830;SHT30;58451;51.550;7.208;2022-09-16T10:16:18;18.73;48.99
70830;SHT30;58451;51.550;7.208;2022-09-16T10:18:55;18.84;49.44
70830;SHT30;58451;51.550;7.208;2022-09-16T10:21:43;18.95;48.80
70830;SHT30;58451;51.550;7.208;2022-09-16T10:24:30;18.98;48.73
70830;SHT30;58451;51.550;7.208;2022-09-16T10:27:01;18.93;49.55
70830;SHT30;58451;51.550;7.208;2022-09-16T10:29:46;18.60;49.05
70830;SHT30;58451;51.550;7.208;2022-09-16T10:32:15;18.20;50.19
70830;SHT30;58451;51.550;7.208;2022-09-16T10:34:45;17.79;52.14
70830;SHT30;58451;51.550;7.208;2022-09-16T10:37:15;17.38;54.46
70830;SHT30;58451;51.550;7.208;2022-09-16T10:39:48;17.21;54.81
70830;SHT30;58451;51.550;7.208;2022-09-16T10:42:28;17.13;54.75
70830;SHT30;58451;51.550;7.208;2022-09-16T10:45:02;17.13;55.39
70830;SHT30;58451;51.550;7.208;2022-09-16T10:47:45;17.25;54.66
70830;SHT30;58451;51.550;7.208;2022-09-16T10:50:18;17.62;52.76
70830;SHT30;58451;51.550;7.208;2022-09-16T10:52:47;17.96;52.00
70830;SHT30;58451;51.550;7.208;2022-09-16T10:57:44;18.27;52.46
70830;SHT30;58451;51.550;7.208;2022-09-16T11:03:12;17.89;48.54
70830;SHT30;58451;51.550;7.208;2022-09-16T11:06:22;17.37;44.70
70830;SHT30;58451;51.550;7.208;2022-09-16T11:21:26;17.20;50.05
70830;SHT30;58451;51.550;7.208;2022-09-16T11:30:10;18.13;50.14
70830;SHT30;58451;51.550;7.208;2022-09-16T11:41:56;19.51;43.77
70830;SHT30;58451;51.550;7.208;2022-09-16T11:44:45;19.34;43.63
70830;SHT30;58451;51.550;7.208;2022-09-16T11:53:00;18.65;44.26
70830;SHT30;58451;51.550;7.208;2022-09-16T11:58:57;18.45;45.56
70830;SHT30;58451;51.550;7.208;2022-09-16T12:05:19;18.19;47.61
70830;SHT30;58451;51.550;7.208;2022-09-16T12:11:31;18.24;49.24
70830;SHT30;58451;51.550;7.208;2022-09-16T12:14:12;18.37;49.09
70830;SHT30;58451;51.550;7.208;2022-09-16T12:16:51;18.48;48.55
70830;SHT30;58451;51.550;7.208;2022-09-16T12:19:35;18.22;49.73
70830;SHT30;58451;51.550;7.208;2022-09-16T12:22:16;17.72;51.36
70830;SHT30;58451;51.550;7.208;2022-09-16T12:25:10;17.19;52.88
70830;SHT30;58451;51.550;7.208;2022-09-16T12:28:02;16.19;57.62
70830;SHT30;58451;51.550;7.208;2022-09-16T12:30:43;15.31;58.89
70830;SHT30;58451;51.550;7.208;2022-09-16T12:33:37;14.83;60.53
70830;SHT30;58451;51.550;7.208;2022-09-16T12:36:14;14.40;62.34
70830;SHT30;58451;51.550;7.208;2022-09-16T12:38:50;14.16;63.38
70830;SHT30;58451;51.550;7.208;2022-09-16T13:02:21;13.84;65.66
70830;SHT30;58451;51.550;7.208;2022-09-16T13:08:06;13.78;67.10
70830;SHT30;58451;51.550;7.208;2022-09-16T13:11:15;13.77;67.09
70830;SHT30;58451;51.550;7.208;2022-09-16T13:14:26;13.80;67.53
70830;SHT30;58451;51.550;7.208;2022-09-16T13:17:31;13.66;68.26
70830;SHT30;58451;51.550;7.208;2022-09-16T13:20:19;13.63;68.03
70830;SHT30;58451;51.550;7.208;2022-09-16T13:23:26;13.73;68.92
70830;SHT30;58451;51.550;7.208;2022-09-16T13:26:00;13.97;67.98
70830;SHT30;58451;51.550;7.208;2022-09-16T13:33:40;15.01;66.42
70830;SHT30;58451;51.550;7.208;2022-09-16T13:38:53;15.01;66.61
70830;SHT30;58451;51.550;7.208;2022-09-16T13:44:24;14.91;67.14
70830;SHT30;58451;51.550;7.208;2022-09-16T13:49:42;15.02;68.68
70830;SHT30;58451;51.550;7.208;2022-09-16T13:52:18;14.90;69.46
70830;SHT30;58451;51.550;7.208;2022-09-16T13:54:53;14.69;69.77
70830;SHT30;58451;51.550;7.208;2022-09-16T14:03:26;14.70;69.15
70830;SHT30;58451;51.550;7.208;2022-09-16T14:14:44;15.18;68.67
70830;SHT30;58451;51.550;7.208;2022-09-16T14:17:15;16.05;66.30
70830;SHT30;58451;51.550;7.208;2022-09-16T14:19:57;16.88;63.27
70830;SHT30;58451;51.550;7.208;2022-09-16T14:22:26;17.43;61.83
70830;SHT30;58451;51.550;7.208;2022-09-16T14:24:54;18.08;61.11
70830;SHT30;58451;51.550;7.208;2022-09-16T14:27:38;18.81;58.08
70830;SHT30;58451;51.550;7.208;2022-09-16T14:30:12;19.26;57.03
70830;SHT30;58451;51.550;7.208;2022-09-16T14:32:43;19.82;55.30
70830;SHT30;58451;51.550;7.208;2022-09-16T14:35:20;20.26;52.55
70830;SHT30;58451;51.550;7.208;2022-09-16T14:37:56;20.67;51.88
70830;SHT30;58451;51.550;7.208;2022-09-16T14:40:28;21.28;50.26
70830;SHT30;58451;51.550;7.208;2022-09-16T14:42:57;21.86;51.05
70830;SHT30;58451;51.550;7.208;2022-09-16T14:45:29;22.56;50.05
70830;SHT30;58451;51.550;7.208;2022-09-16T14:48:00;23.33;49.61
70830;SHT30;58451;51.550;7.208;2022-09-16T14:50:36;24.17;48.15
70830;SHT30;58451;51.550;7.208;2022-09-16T14:53:21;24.87;46.90
70830;SHT30;58451;51.550;7.208;2022-09-16T14:56:02;25.40;43.54
70830;SHT30;58451;51.550;7.208;2022-09-16T14:58:30;25.34;42.15
70830;SHT30;58451;51.550;7.208;2022-09-16T15:01:04;25.16;41.53
70830;SHT30;58451;51.550;7.208;2022-09-16T15:04:01;25.07;42.63
70830;SHT30;58451;51.550;7.208;2022-09-16T15:06:41;25.94;41.64
70830;SHT30;58451;51.550;7.208;2022-09-16T15:09:22;25.58;39.81
70830;SHT30;58451;51.550;7.208;2022-09-16T15:12:00;23.87;43.57
70830;SHT30;58451;51.550;7.208;2022-09-16T15:14:28;22.47;45.97
70830;SHT30;58451;51.550;7.208;2022-09-16T15:16:57;20.93;49.44
70830;SHT30;58451;51.550;7.208;2022-09-16T15:19:33;19.79;51.85
70830;SHT30;58451;51.550;7.208;2022-09-16T15:22:07;18.84;52.89
70830;SHT30;58451;51.550;7.208;2022-09-16T15:24:40;18.20;54.62
70830;SHT30;58451;51.550;7.208;2022-09-16T15:27:08;17.65;53.54
70830;SHT30;58451;51.550;7.208;2022-09-16T15:29:45;17.08;54.54
70830;SHT30;58451;51.550;7.208;2022-09-16T15:32:19;16.57;58.19
70830;SHT30;58451;51.550;7.208;2022-09-16T15:38:09;15.76;59.77
70830;SHT30;58451;51.550;7.208;2022-09-16T15:40:41;15.44;58.85
70830;SHT30;58451;51.550;7.208;2022-09-16T15:43:26;15.18;59.70
70830;SHT30;58451;51.550;7.208;2022-09-16T15:46:04;14.90;62.48
70830;SHT30;58451;51.550;7.208;2022-09-16T15:48:50;14.61;64.12
70830;SHT30;58451;51.550;7.208;2022-09-16T15:51:38;14.29;66.70
70830;SHT30;58451;51.550;7.208;2022-09-16T15:57:01;13.73;71.66
70830;SHT30;58451;51.550;7.208;2022-09-16T16:05:09;12.32;75.49
70830;SHT30;58451;51.550;7.208;2022-09-16T16:07:41;12.29;76.16
70830;SHT30;58451;51.550;7.208;2022-09-16T16:10:15;12.46;74.60
70830;SHT30;58451;51.550;7.208;2022-09-16T16:12:48;12.95;74.19
70830;SHT30;58451;51.550;7.208;2022-09-16T16:15:20;14.63;72.31
70830;SHT30;58451;51.550;7.208;2022-09-16T16:17:50;17.17;66.47
70830;SHT30;58451;51.550;7.208;2022-09-16T16:20:19;17.85;64.80
70830;SHT30;58451;51.550;7.208;2022-09-16T16:22:47;17.59;65.43
70830;SHT30;58451;51.550;7.208;2022-09-16T16:25:14;16.66;67.30
70830;SHT30;58451;51.550;7.208;2022-09-16T16:27:42;16.06;67.83
70830;SHT30;58451;51.550;7.208;2022-09-16T16:30:09;15.51;67.80
70830;SHT30;58451;51.550;7.208;2022-09-16T16:32:37;15.02;67.92
70830;SHT30;58451;51.550;7.208;2022-09-16T16:35:05;14.54;68.26
70830;SHT30;58451;51.550;7.208;2022-09-16T16:37:33;14.50;67.93
70830;SHT30;58451;51.550;7.208;2022-09-16T16:40:11;15.51;65.34
70830;SHT30;58451;51.550;7.208;2022-09-16T16:42:39;16.28;63.41
70830;SHT30;58451;51.550;7.208;2022-09-16T16:45:10;16.11;63.25
70830;SHT30;58451;51.550;7.208;2022-09-16T16:47:39;15.44;65.33
70830;SHT30;58451;51.550;7.208;2022-09-16T16:50:07;15.17;65.80
70830;SHT30;58451;51.550;7.208;2022-09-16T16:52:35;14.97;66.21
70830;SHT30;58451;51.550;7.208;2022-09-16T16:55:03;14.72;65.98
70830;SHT30;58451;51.550;7.208;2022-09-16T16:57:31;14.44;66.56
70830;SHT30;58451;51.550;7.208;2022-09-16T16:59:58;14.19;67.20
70830;SHT30;58451;51.550;7.208;2022-09-16T17:02:24;13.94;67.57
70830;SHT30;58451;51.550;7.208;2022-09-16T17:04:51;13.73;67.98
70830;SHT30;58451;51.550;7.208;2022-09-16T17:07:18;13.58;68.50
70830;SHT30;58451;51.550;7.208;2022-09-16T17:09:54;13.48;69.00
70830;SHT30;58451;51.550;7.208;2022-09-16T17:12:25;13.36;70.08
70830;SHT30;58451;51.550;7.208;2022-09-16T17:14:52;13.22;70.70
70830;SHT30;58451;51.550;7.208;2022-09-16T17:17:19;13.06;71.42
70830;SHT30;58451;51.550;7.208;2022-09-16T17:19:46;12.94;71.49
70830;SHT30;58451;51.550;7.208;2022-09-16T17:22:13;12.83;72.84
70830;SHT30;58451;51.550;7.208;2022-09-16T17:24:41;12.70;74.31
70830;SHT30;58451;51.550;7.208;2022-09-16T17:27:08;12.57;75.15
70830;SHT30;58451;51.550;7.208;2022-09-16T17:29:34;12.45;75.53
70830;SHT30;58451;51.550;7.208;2022-09-16T17:32:01;12.34;76.59
70830;SHT30;58451;51.550;7.208;2022-09-16T17:34:28;12.23;77.08
70830;SHT30;58451;51.550;7.208;2022-09-16T17:36:56;12.14;77.54
70830;SHT30;58451;51.550;7.208;2022-09-16T17:39:24;12.04;77.68
70830;SHT30;58451;51.550;7.208;2022-09-16T17:41:51;11.97;77.58
70830;SHT30;58451;51.550;7.208;2022-09-16T17:44:21;11.90;77.85
70830;SHT30;58451;51.550;7.208;2022-09-16T17:46:48;11.85;78.67
70830;SHT30;58451;51.550;7.208;2022-09-16T17:49:16;11.78;78.81
70830;SHT30;58451;51.550;7.208;2022-09-16T17:51:47;11.72;78.48
70830;SHT30;58451;51.550;7.208;2022-09-16T17:54:15;11.66;78.59
70830;SHT30;58451;51.550;7.208;2022-09-16T17:56:42;11.61;78.04
70830;SHT30;58451;51.550;7.208;2022-09-16T17:59:10;11.56;77.98
70830;SHT30;58451;51.550;7.208;2022-09-16T18:01:39;11.52;78.92
70830;SHT30;58451;51.550;7.208;2022-09-16T18:04:06;11.50;79.61
70830;SHT30;58451;51.550;7.208;2022-09-16T18:06:38;11.51;79.62
70830;SHT30;58451;51.550;7.208;2022-09-16T18:09:10;11.51;79.42
70830;SHT30;58451;51.550;7.208;2022-09-16T18:11:39;11.51;79.91
70830;SHT30;58451;51.550;7.208;2022-09-16T18:14:07;11.53;80.14
70830;SHT30;58451;51.550;7.208;2022-09-16T18:16:37;11.57;80.12
70830;SHT30;58451;51.550;7.208;2022-09-16T18:19:05;11.59;79.92
70830;SHT30;58451;51.550;7.208;2022-09-16T18:21:32;11.61;79.99
70830;SHT30;58451;51.550;7.208;2022-09-16T18:24:00;11.61;80.04
70830;SHT30;58451;51.550;7.208;2022-09-16T18:26:29;11.61;79.59
70830;SHT30;58451;51.550;7.208;2022-09-16T18:28:59;11.58;79.92
70830;SHT30;58451;51.550;7.208;2022-09-16T18:31:45;11.61;79.86
70830;SHT30;58451;51.550;7.208;2022-09-16T18:34:14;11.63;79.72
70830;SHT30;58451;51.550;7.208;2022-09-16T18:36:43;11.64;80.21
70830;SHT30;58451;51.550;7.208;2022-09-16T18:39:12;11.70;80.09
70830;SHT30;58451;51.550;7.208;2022-09-16T18:41:42;11.73;79.83
70830;SHT30;58451;51.550;7.208;2022-09-16T18:44:15;11.78;79.82
70830;SHT30;58451;51.550;7.208;2022-09-16T18:46:45;11.81;79.84
70830;SHT30;58451;51.550;7.208;2022-09-16T18:49:13;11.84;79.74
70830;SHT30;58451;51.550;7.208;2022-09-16T18:51:43;11.95;79.46
70830;SHT30;58451;51.550;7.208;2022-09-16T18:54:24;12.03;79.22
70830;SHT30;58451;51.550;7.208;2022-09-16T18:56:54;12.08;79.12
70830;SHT30;58451;51.550;7.208;2022-09-16T18:59:26;12.13;79.10
70830;SHT30;58451;51.550;7.208;2022-09-16T19:01:56;12.18;79.03
70830;SHT30;58451;51.550;7.208;2022-09-16T19:04:27;12.24;78.88
70830;SHT30;58451;51.550;7.208;2022-09-16T19:07:01;12.31;78.60
70830;SHT30;58451;51.550;7.208;2022-09-16T19:09:33;12.36;78.44
70830;SHT30;58451;51.550;7.208;2022-09-16T19:12:03;12.42;78.43
70830;SHT30;58451;51.550;7.208;2022-09-16T19:14:32;12.46;78.38
70830;SHT30;58451;51.550;7.208;2022-09-16T19:17:02;12.48;78.44
70830;SHT30;58451;51.550;7.208;2022-09-16T19:19:29;12.51;78.33
70830;SHT30;58451;51.550;7.208;2022-09-16T19:21:57;12.55;78.24
70830;SHT30;58451;51.550;7.208;2022-09-16T19:24:24;12.53;78.15